Time;durP1;ratioP1;P1;durP2;ratioP2;P2;SDS_P1;SDS_P2;PMS_P1;PMS_P2;Temp;Humidity;BMP_temperature;BMP_pressure;BME280_temperature;BME280_humidity;BME280_pressure;Samples;Min_cycle;Max_cycle;Signal;HPM_P1;HPM_P2
2024/03/08 00:00:19;;;;;;;38.20;19.40;;;3.80;99.90;;;;;;5005682;28;20242;-66
2024/03/08 00:02:50;;;;;;;41.53;19.60;;;3.70;99.90;;;;;;5005536;28;20245;-66
2024/03/08 00:05:21;;;;;;;34.77;17.67;;;3.70;99.90;;;;;;5008737;28;20182;-66
2024/03/08 00:07:49;;;;;;;37.97;18.23;;;3.70;99.90;;;;;;5005573;28;20691;-66
2024/03/08 00:10:18;;;;;;;42.23;19.73;;;3.70;99.90;;;;;;5006259;28;20288;-66
2024/03/08 00:12:46;;;;;;;36.90;18.57;;;3.60;99.90;;;;;;5008135;28;20268;-66
2024/03/08 00:15:16;;;;;;;34.27;19.03;;;3.60;99.90;;;;;;5007795;28;20235;-66
2024/03/08 00:17:47;;;;;;;38.07;19.03;;;3.50;99.90;;;;;;5008155;28;20241;-65
2024/03/08 00:20:17;;;;;;;36.37;19.20;;;3.50;99.90;;;;;;5009196;28;20663;-66
2024/03/08 00:22:48;;;;;;;32.97;17.47;;;3.60;99.90;;;;;;5002588;28;20233;-66
2024/03/08 00:25:16;;;;;;;41.73;18.70;;;3.60;99.90;;;;;;5009566;28;20671;-66
2024/03/08 00:27:45;;;;;;;35.83;18.10;;;3.60;99.90;;;;;;5008334;28;20226;-66
2024/03/08 00:30:16;;;;;;;36.13;17.87;;;3.60;99.90;;;;;;5007843;28;20312;-65
2024/03/08 00:32:44;;;;;;;36.53;18.70;;;3.60;99.90;;;;;;5009982;28;20704;-65
2024/03/08 00:35:13;;;;;;;37.30;19.20;;;3.60;99.90;;;;;;5013282;28;20237;-65
2024/03/08 00:37:42;;;;;;;36.50;18.43;;;3.70;99.90;;;;;;5010871;28;20260;-65
2024/03/08 00:40:12;;;;;;;36.20;17.33;;;3.70;99.90;;;;;;5013336;28;20256;-65
2024/03/08 00:42:43;;;;;;;31.33;17.43;;;3.70;99.90;;;;;;5010434;28;20214;-65
2024/03/08 00:45:12;;;;;;;38.93;17.97;;;3.70;99.90;;;;;;5011658;28;20229;-65
2024/03/08 00:47:43;;;;;;;34.57;18.20;;;3.60;99.90;;;;;;5013991;28;20272;-65
2024/03/08 00:50:12;;;;;;;40.47;19.07;;;3.50;99.90;;;;;;5011813;28;20186;-65
2024/03/08 00:52:41;;;;;;;35.83;18.23;;;3.50;99.90;;;;;;5007131;28;20225;-65
2024/03/08 00:55:11;;;;;;;38.40;18.40;;;3.60;99.90;;;;;;5013103;28;20660;-65
2024/03/08 00:57:41;;;;;;;39.33;19.17;;;3.60;99.90;;;;;;5011395;28;20530;-65
2024/03/08 01:00:11;;;;;;;38.87;19.07;;;3.60;99.90;;;;;;5008902;28;20228;-65
2024/03/08 01:02:41;;;;;;;39.10;19.83;;;3.50;99.90;;;;;;5011879;28;20186;-65
2024/03/08 01:05:10;;;;;;;38.63;18.30;;;3.60;99.90;;;;;;5012481;28;20277;-65
2024/03/08 01:07:38;;;;;;;39.20;19.47;;;3.60;99.90;;;;;;5005614;28;20234;-65
2024/03/08 01:10:09;;;;;;;41.67;19.87;;;3.60;99.90;;;;;;5010903;28;20245;-65
2024/03/08 01:12:40;;;;;;;42.53;19.63;;;3.60;99.90;;;;;;5009718;28;20213;-65
2024/03/08 01:15:08;;;;;;;36.83;18.77;;;3.50;99.90;;;;;;5012026;28;20237;-65
2024/03/08 01:17:37;;;;;;;43.07;19.73;;;3.40;99.90;;;;;;5011628;28;20561;-65
2024/03/08 01:20:07;;;;;;;41.90;19.70;;;3.50;99.90;;;;;;5007669;28;20244;-65
2024/03/08 01:22:36;;;;;;;41.87;20.60;;;3.40;99.90;;;;;;5009183;28;20321;-65
2024/03/08 01:25:05;;;;;;;43.43;19.70;;;3.40;99.90;;;;;;5010643;28;20225;-65
2024/03/08 01:27:35;;;;;;;46.43;20.90;;;3.40;99.90;;;;;;5009023;28;20218;-65
2024/03/08 01:30:06;;;;;;;41.87;20.30;;;3.40;99.90;;;;;;5011089;28;20697;-65
2024/03/08 01:32:34;;;;;;;45.80;21.00;;;3.40;99.90;;;;;;5011149;28;20217;-65
2024/03/08 01:35:03;;;;;;;41.33;20.67;;;3.40;99.90;;;;;;5012956;28;20276;-65
2024/03/08 01:37:32;;;;;;;45.77;21.27;;;3.40;99.90;;;;;;5005797;28;20217;-65
2024/03/08 01:40:00;;;;;;;47.37;21.23;;;3.40;99.90;;;;;;5009132;28;20240;-65
2024/03/08 01:42:28;;;;;;;45.77;21.47;;;3.40;99.90;;;;;;5012165;28;20233;-65
2024/03/08 01:44:57;;;;;;;47.10;21.93;;;3.40;99.90;;;;;;5011222;28;20218;-65
2024/03/08 01:47:27;;;;;;;48.20;22.53;;;3.40;99.90;;;;;;5003180;28;20204;-64
2024/03/08 01:49:55;;;;;;;45.00;20.40;;;3.40;99.90;;;;;;5012324;28;20203;-65
2024/03/08 01:52:25;;;;;;;45.90;21.47;;;3.40;99.90;;;;;;5010693;28;20216;-65
2024/03/08 01:54:54;;;;;;;48.00;22.10;;;3.40;99.90;;;;;;5011647;28;20218;-65
2024/03/08 01:57:23;;;;;;;49.30;22.70;;;3.40;99.90;;;;;;5007200;28;20233;-65
2024/03/08 01:59:54;;;;;;;43.23;21.43;;;3.30;99.90;;;;;;5011360;28;20577;-65
2024/03/08 02:02:23;;;;;;;42.40;20.20;;;3.30;99.90;;;;;;5010396;28;20198;-65
2024/03/08 02:04:53;;;;;;;44.10;21.83;;;3.30;99.90;;;;;;5009387;28;20230;-65
2024/03/08 02:07:22;;;;;;;46.33;21.70;;;3.30;99.90;;;;;;5008216;28;20229;-65
2024/03/08 02:09:51;;;;;;;48.87;21.47;;;3.30;99.90;;;;;;5009676;28;20218;-65
2024/03/08 02:12:21;;;;;;;44.40;22.80;;;3.30;99.90;;;;;;5008404;28;20241;-65
2024/03/08 02:14:50;;;;;;;46.17;21.30;;;3.30;99.90;;;;;;5010160;28;20265;-65
2024/03/08 02:17:18;;;;;;;44.00;21.93;;;3.30;99.90;;;;;;5009202;28;20241;-65
2024/03/08 02:19:47;;;;;;;43.73;21.47;;;3.30;99.90;;;;;;5009866;28;20244;-65
2024/03/08 02:22:18;;;;;;;44.87;22.03;;;3.30;99.90;;;;;;5007796;28;20304;-65
2024/03/08 02:24:46;;;;;;;42.30;21.60;;;3.20;99.90;;;;;;5022999;28;20748;-66
2024/03/08 02:27:14;;;;;;;45.33;22.03;;;3.20;99.90;;;;;;5007971;28;20226;-66
2024/03/08 02:29:45;;;;;;;46.43;21.90;;;3.20;99.90;;;;;;5024649;28;20194;-66
2024/03/08 02:32:13;;;;;;;45.97;22.20;;;3.20;99.90;;;;;;5009286;28;20255;-66
2024/03/08 02:34:41;;;;;;;42.23;21.93;;;3.10;99.90;;;;;;5008298;28;20217;-66
2024/03/08 02:37:10;;;;;;;43.53;22.50;;;3.10;99.90;;;;;;5008350;28;20229;-66
2024/03/08 02:39:39;;;;;;;42.97;22.17;;;3.10;99.90;;;;;;5012790;28;20233;-65
2024/03/08 02:42:08;;;;;;;41.97;21.27;;;3.10;99.90;;;;;;5009825;28;20229;-65
2024/03/08 02:44:37;;;;;;;45.37;23.07;;;3.10;99.90;;;;;;5008850;28;20194;-65
2024/03/08 02:47:06;;;;;;;45.03;22.07;;;3.10;99.90;;;;;;5009320;28;20281;-66
2024/03/08 02:49:34;;;;;;;42.37;21.53;;;3.10;99.90;;;;;;5008202;28;20240;-65
2024/03/08 02:52:07;;;;;;;47.20;23.23;;;3.10;99.90;;;;;;5008744;28;20218;-65
2024/03/08 02:54:36;;;;;;;44.50;22.27;;;3.10;99.90;;;;;;5007409;28;20226;-65
2024/03/08 02:57:07;;;;;;;40.37;22.23;;;3.10;99.90;;;;;;5008211;28;20222;-65
2024/03/08 02:59:39;;;;;;;43.53;22.07;;;3.10;99.90;;;;;;5007794;28;20236;-65
2024/03/08 03:02:10;;;;;;;43.10;22.40;;;3.10;99.90;;;;;;5008732;28;20190;-66
2024/03/08 03:04:40;;;;;;;45.07;22.30;;;3.10;99.90;;;;;;5009218;28;20218;-66
2024/03/08 03:07:08;;;;;;;43.03;23.30;;;3.10;99.90;;;;;;5005053;28;20218;-66
2024/03/08 03:09:37;;;;;;;49.70;22.80;;;3.10;99.90;;;;;;5005025;28;20609;-65
2024/03/08 03:12:08;;;;;;;44.93;22.67;;;3.10;99.90;;;;;;5009161;28;20233;-66
2024/03/08 03:14:38;;;;;;;44.13;23.13;;;3.10;99.90;;;;;;5009885;28;20266;-65
2024/03/08 03:17:07;;;;;;;42.63;22.83;;;3.00;99.90;;;;;;5008747;28;20241;-66
2024/03/08 03:19:35;;;;;;;44.27;22.47;;;3.00;99.90;;;;;;5008620;28;20218;-65
2024/03/08 03:22:05;;;;;;;41.60;23.40;;;3.00;99.90;;;;;;5011042;28;20214;-65
2024/03/08 03:24:34;;;;;;;52.07;23.47;;;3.00;99.90;;;;;;5007044;28;20225;-65
2024/03/08 03:27:10;;;;;;;45.97;22.90;;;3.00;99.90;;;;;;5007285;28;20229;-66
2024/03/08 03:29:43;;;;;;;44.93;23.03;;;3.00;99.90;;;;;;5009995;28;20193;-65
2024/03/08 03:32:12;;;;;;;49.73;24.07;;;2.90;99.90;;;;;;5006106;28;20240;-65
2024/03/08 03:34:41;;;;;;;44.67;23.67;;;2.90;99.90;;;;;;5008713;28;20260;-66
2024/03/08 03:37:12;;;;;;;41.53;23.10;;;2.90;99.90;;;;;;5009172;28;20932;-66
2024/03/08 03:39:48;;;;;;;49.73;23.30;;;2.90;99.90;;;;;;5009147;28;20252;-65
2024/03/08 03:42:17;;;;;;;42.80;23.20;;;2.90;99.90;;;;;;5008932;28;20221;-65
2024/03/08 03:44:48;;;;;;;48.40;24.10;;;2.90;99.40;;;;;;5009214;28;20751;-65
2024/03/08 03:47:17;;;;;;;42.97;23.30;;;2.90;99.20;;;;;;5008940;28;20289;-66
2024/03/08 03:49:46;;;;;;;43.27;23.97;;;2.90;97.50;;;;;;5009341;28;20221;-65
2024/03/08 03:52:15;;;;;;;43.07;23.70;;;2.90;97.20;;;;;;5010154;28;20288;-66
2024/03/08 03:54:43;;;;;;;43.47;23.00;;;2.80;96.50;;;;;;5008186;28;20229;-66
2024/03/08 03:57:12;;;;;;;46.17;23.10;;;2.80;96.20;;;;;;5004343;28;20234;-65
2024/03/08 03:59:42;;;;;;;44.57;24.20;;;2.80;95.90;;;;;;5004534;28;20186;-65
2024/03/08 04:02:11;;;;;;;46.80;23.80;;;2.80;95.10;;;;;;5008865;28;20186;-65
2024/03/08 04:04:40;;;;;;;44.90;24.10;;;2.80;94.90;;;;;;5007895;28;20307;-65
2024/03/08 04:07:09;;;;;;;43.87;24.43;;;2.80;94.20;;;;;;5008900;28;20222;-65
2024/03/08 04:09:38;;;;;;;44.13;23.83;;;2.80;94.10;;;;;;5006970;28;20221;-66
2024/03/08 04:12:07;;;;;;;41.10;23.10;;;2.70;95.90;;;;;;5007890;28;20240;-65
2024/03/08 04:14:35;;;;;;;46.40;23.30;;;2.70;94.50;;;;;;5007369;28;20289;-65
2024/03/08 04:17:05;;;;;;;44.20;23.23;;;2.70;94.70;;;;;;5009391;28;20549;-65
2024/03/08 04:19:35;;;;;;;45.37;24.67;;;2.70;93.10;;;;;;5007591;28;20313;-65
2024/03/08 04:22:04;;;;;;;44.77;23.83;;;2.70;93.80;;;;;;5005878;28;20644;-66
2024/03/08 04:24:32;;;;;;;46.27;24.07;;;2.70;92.80;;;;;;5008530;28;20771;-66
2024/03/08 04:27:02;;;;;;;43.30;23.37;;;2.60;95.60;;;;;;5007848;28;20214;-65
2024/03/08 04:29:32;;;;;;;46.27;24.07;;;2.60;93.90;;;;;;5010722;28;20656;-65
2024/03/08 04:32:00;;;;;;;47.27;23.87;;;2.60;93.20;;;;;;5008082;28;20202;-65
2024/03/08 04:34:29;;;;;;;44.27;23.77;;;2.60;92.20;;;;;;5005133;28;20218;-65
2024/03/08 04:36:59;;;;;;;43.97;24.17;;;2.60;94.20;;;;;;5009282;28;20708;-65
2024/03/08 04:39:29;;;;;;;42.63;23.63;;;2.60;94.50;;;;;;5011467;28;20242;-66
2024/03/08 04:42:00;;;;;;;45.37;23.83;;;2.60;92.30;;;;;;5010176;28;20217;-66
2024/03/08 04:44:33;;;;;;;44.77;24.53;;;2.60;92.00;;;;;;5008857;28;20525;-65
2024/03/08 04:47:02;;;;;;;43.43;23.47;;;2.60;91.40;;;;;;5010697;28;20649;-66
2024/03/08 04:49:30;;;;;;;44.00;23.73;;;2.60;92.00;;;;;;5008685;28;20245;-66
2024/03/08 04:52:00;;;;;;;40.47;22.70;;;2.50;95.70;;;;;;5007574;28;20222;-65
2024/03/08 04:54:28;;;;;;;43.13;24.00;;;2.50;96.30;;;;;;5010264;28;20236;-65
2024/03/08 04:56:56;;;;;;;45.47;24.50;;;2.40;98.70;;;;;;5006591;28;20228;-65
2024/03/08 04:59:25;;;;;;;46.00;25.13;;;2.40;97.00;;;;;;5007231;28;20194;-65
2024/03/08 05:01:54;;;;;;;40.60;23.23;;;2.50;97.70;;;;;;5005403;28;20198;-65
2024/03/08 05:04:22;;;;;;;45.93;24.47;;;2.50;96.80;;;;;;5008323;28;20226;-66
2024/03/08 05:06:51;;;;;;;45.93;24.23;;;2.40;96.00;;;;;;5008395;28;20226;-65
2024/03/08 05:09:21;;;;;;;44.77;24.30;;;2.40;97.00;;;;;;5007147;28;20284;-65
2024/03/08 05:11:50;;;;;;;48.30;24.60;;;2.40;96.30;;;;;;5005774;28;20309;-65
2024/03/08 05:14:19;;;;;;;44.67;24.93;;;2.40;98.10;;;;;;5008745;28;20226;-65
2024/03/08 05:16:49;;;;;;;43.23;24.57;;;2.40;97.80;;;;;;5007411;28;20225;-65
2024/03/08 05:19:18;;;;;;;44.23;24.70;;;2.40;98.70;;;;;;5009786;28;20279;-65
2024/03/08 05:21:47;;;;;;;43.33;25.40;;;2.40;99.40;;;;;;5025724;28;20218;-65
2024/03/08 05:24:16;;;;;;;44.70;25.07;;;2.40;99.20;;;;;;5009226;28;20249;-65
2024/03/08 05:26:48;;;;;;;41.90;24.10;;;2.40;98.70;;;;;;5012043;28;20669;-65
2024/03/08 05:29:16;;;;;;;40.63;22.90;;;2.30;98.40;;;;;;5013208;28;20237;-66
2024/03/08 05:31:48;;;;;;;42.37;24.73;;;2.30;99.90;;;;;;5011188;28;20210;-66
2024/03/08 05:34:19;;;;;;;46.50;24.57;;;2.30;99.90;;;;;;5009456;28;20712;-65
2024/03/08 05:36:49;;;;;;;45.20;24.37;;;2.40;97.30;;;;;;5012376;28;20317;-65
2024/03/08 05:39:19;;;;;;;47.63;23.97;;;2.40;97.00;;;;;;5010671;28;20238;-65
2024/03/08 05:41:50;;;;;;;47.03;24.47;;;2.40;98.10;;;;;;5012418;28;20264;-65
2024/03/08 05:44:19;;;;;;;53.23;24.73;;;2.30;98.70;;;;;;5011754;28;20261;-66
2024/03/08 05:46:47;;;;;;;51.77;24.40;;;2.30;99.90;;;;;;5011697;28;20214;-65
2024/03/08 05:49:15;;;;;;;44.33;24.27;;;2.30;99.90;;;;;;5010559;28;20727;-65
2024/03/08 05:51:44;;;;;;;48.20;25.40;;;2.20;99.90;;;;;;5009835;28;20615;-65
2024/03/08 05:54:13;;;;;;;47.67;24.87;;;2.20;99.90;;;;;;5011212;28;20217;-65
2024/03/08 05:56:47;;;;;;;42.33;24.30;;;2.20;99.90;;;;;;5010189;28;20241;-65
2024/03/08 05:59:20;;;;;;;43.63;23.53;;;2.20;99.90;;;;;;5008694;28;20221;-65
2024/03/08 06:01:49;;;;;;;45.63;24.10;;;2.20;99.90;;;;;;5008973;28;20222;-65
2024/03/08 06:04:17;;;;;;;44.83;23.70;;;2.20;99.90;;;;;;5009744;28;20229;-65
2024/03/08 06:06:46;;;;;;;51.50;25.53;;;2.20;99.90;;;;;;5008863;28;20222;-65
2024/03/08 06:09:22;;;;;;;47.67;24.60;;;2.20;99.90;;;;;;5007779;28;20229;-65
2024/03/08 06:11:52;;;;;;;44.20;23.93;;;2.20;99.90;;;;;;5010513;28;20233;-64
2024/03/08 06:14:23;;;;;;;45.23;23.90;;;2.20;99.90;;;;;;5010091;28;20624;-65
2024/03/08 06:16:52;;;;;;;48.57;24.40;;;2.20;99.90;;;;;;5006364;28;20255;-65
2024/03/08 06:19:20;;;;;;;46.37;24.13;;;2.10;99.90;;;;;;5010982;28;20218;-65
2024/03/08 06:21:48;;;;;;;47.20;25.03;;;2.20;99.90;;;;;;5006602;28;20241;-65
2024/03/08 06:24:17;;;;;;;47.90;25.17;;;2.20;99.90;;;;;;5007392;28;20226;-65
2024/03/08 06:26:46;;;;;;;45.93;24.70;;;2.20;99.90;;;;;;5008990;28;20224;-65
2024/03/08 06:29:15;;;;;;;45.23;23.97;;;2.20;99.90;;;;;;5007967;28;20198;-65
2024/03/08 06:31:45;;;;;;;54.57;25.53;;;2.20;99.90;;;;;;5024338;28;20256;-65
2024/03/08 06:34:15;;;;;;;48.60;24.03;;;2.20;99.90;;;;;;5010883;28;20230;-65
2024/03/08 06:36:43;;;;;;;41.10;23.73;;;2.20;99.90;;;;;;5009895;28;20276;-65
2024/03/08 06:39:25;;;;;;;43.60;23.40;;;2.20;99.90;;;;;;5005924;28;22225;-65
2024/03/08 06:41:58;;;;;;;54.67;24.53;;;2.20;99.90;;;;;;5005414;28;20229;-65
2024/03/08 06:44:27;;;;;;;45.70;24.77;;;2.20;99.90;;;;;;5007488;28;20185;-65
2024/03/08 06:46:56;;;;;;;46.97;24.53;;;2.20;99.90;;;;;;5006441;28;20280;-66
2024/03/08 06:49:28;;;;;;;49.03;25.33;;;2.20;99.90;;;;;;5007309;28;20616;-66
2024/03/08 06:51:56;;;;;;;41.73;23.53;;;2.30;99.90;;;;;;5007830;28;20248;-66
2024/03/08 06:54:25;;;;;;;42.13;24.13;;;2.30;99.90;;;;;;5011516;28;20222;-66
2024/03/08 06:56:53;;;;;;;43.33;24.43;;;2.30;99.90;;;;;;5010052;28;20719;-66
2024/03/08 06:59:22;;;;;;;42.93;24.10;;;2.30;99.90;;;;;;5009324;28;20209;-66
2024/03/08 07:01:51;;;;;;;46.50;23.50;;;2.40;98.80;;;;;;5004596;28;20565;-66
2024/03/08 07:04:21;;;;;;;45.83;23.90;;;2.40;97.80;;;;;;5005345;28;20580;-66
2024/03/08 07:06:50;;;;;;;43.63;24.13;;;2.40;98.20;;;;;;5006838;28;20931;-66
2024/03/08 07:09:18;;;;;;;43.43;23.93;;;2.50;98.00;;;;;;5007881;28;20249;-66
2024/03/08 07:11:49;;;;;;;44.90;24.60;;;2.50;96.40;;;;;;5010497;28;20775;-66
2024/03/08 07:14:21;;;;;;;49.57;25.00;;;2.60;95.20;;;;;;5011448;28;20510;-66
2024/03/08 07:16:51;;;;;;;46.43;24.83;;;2.60;93.10;;;;;;5024403;28;20224;-65
2024/03/08 07:19:21;;;;;;;48.73;24.27;;;2.70;90.20;;;;;;5007687;28;20236;-66
2024/03/08 07:21:50;;;;;;;43.13;23.23;;;2.70;91.10;;;;;;5006604;28;20213;-66
2024/03/08 07:24:39;;;;;;;42.00;23.37;;;2.80;85.70;;;;;;4995606;28;20262;-66
2024/03/08 07:27:07;;;;;;;41.13;23.33;;;2.80;81.40;;;;;;5008270;28;20228;-66
2024/03/08 07:29:37;;;;;;;41.03;22.23;;;2.90;77.80;;;;;;5010117;28;20189;-66
2024/03/08 07:32:19;;;;;;;44.07;22.83;;;3.00;75.00;;;;;;5007600;28;20271;-66
2024/03/08 07:34:50;;;;;;;40.20;22.17;;;3.10;68.30;;;;;;5006014;28;20309;-66
2024/03/08 07:37:20;;;;;;;41.37;21.77;;;3.30;58.10;;;;;;5007361;28;20228;-66
2024/03/08 07:39:49;;;;;;;40.97;21.23;;;3.70;33.70;;;;;;5007986;28;20304;-66
2024/03/08 07:42:17;;;;;;;40.33;22.50;;;4.20;14.80;;;;;;5009722;28;20214;-66
2024/03/08 07:44:48;;;;;;;36.80;20.33;;;4.60;1.00;;;;;;5010466;28;20308;-66
2024/03/08 07:47:18;;;;;;;37.00;21.30;;;4.80;1.00;;;;;;5008574;28;20202;-66
2024/03/08 07:49:51;;;;;;;40.57;20.90;;;5.20;1.00;;;;;;5009469;28;20214;-66
2024/03/08 07:52:20;;;;;;;35.03;20.17;;;5.60;1.00;;;;;;5004000;28;21122;-66
2024/03/08 07:54:48;;;;;;;35.27;20.20;;;5.80;1.00;;;;;;5001482;28;20238;-66
2024/03/08 07:57:17;;;;;;;35.67;21.17;;;6.00;1.00;;;;;;5007278;28;20214;-67
2024/03/08 07:59:46;;;;;;;36.50;19.97;;;6.20;1.00;;;;;;5007060;28;20229;-66
2024/03/08 08:02:14;;;;;;;34.17;18.77;;;6.40;1.00;;;;;;5004077;28;20189;-66
2024/03/08 08:04:44;;;;;;;32.40;19.73;;;6.70;1.00;;;;;;4999073;28;21421;-67
2024/03/08 08:07:14;;;;;;;35.10;19.30;;;6.80;1.00;;;;;;5002924;28;20361;-66
2024/03/08 08:09:45;;;;;;;32.47;19.27;;;6.70;1.00;;;;;;4995700;28;20832;-66
2024/03/08 08:12:14;;;;;;;36.67;21.40;;;6.70;1.00;;;;;;5001575;28;20291;-67
2024/03/08 08:14:42;;;;;;;31.47;19.37;;;6.90;1.00;;;;;;5001557;28;20201;-67
2024/03/08 08:17:11;;;;;;;33.40;19.80;;;6.90;1.00;;;;;;4998795;28;20204;-67
2024/03/08 08:19:43;;;;;;;32.00;20.03;;;7.10;1.00;;;;;;5004394;28;20584;-67
2024/03/08 08:22:11;;;;;;;34.60;19.30;;;7.30;1.00;;;;;;5000916;28;20213;-66
2024/03/08 08:24:41;;;;;;;36.00;21.23;;;7.20;1.00;;;;;;5003484;28;20218;-66
2024/03/08 08:27:11;;;;;;;37.33;19.73;;;7.20;1.00;;;;;;5005413;28;20236;-66
2024/03/08 08:29:40;;;;;;;36.03;20.37;;;7.40;1.00;;;;;;5002623;28;20217;-66
2024/03/08 08:32:09;;;;;;;33.97;19.17;;;7.70;1.00;;;;;;5001749;28;20213;-67
2024/03/08 08:34:36;;;;;;;31.70;19.40;;;7.90;99.90;;;;;;5013880;28;20226;-67
2024/03/08 08:37:06;;;;;;;32.30;19.60;;;8.00;99.90;;;;;;5001444;28;20301;-67
2024/03/08 08:39:34;;;;;;;33.77;19.17;;;8.10;99.90;;;;;;5004863;28;20236;-66
2024/03/08 08:42:04;;;;;;;32.37;19.50;;;8.10;99.90;;;;;;5021953;28;20225;-67
2024/03/08 08:44:34;;;;;;;36.63;19.63;;;8.10;99.90;;;;;;5004708;28;20194;-67
2024/03/08 08:47:06;;;;;;;37.37;19.97;;;8.30;99.90;;;;;;5002252;28;21069;-67
2024/03/08 08:49:44;;;;;;;34.43;18.87;;;8.40;99.90;;;;;;5003213;28;20217;-67
2024/03/08 08:52:13;;;;;;;39.23;20.13;;;8.20;99.90;;;;;;5007989;28;20716;-67
2024/03/08 08:54:45;;;;;;;30.93;18.50;;;8.30;99.90;;;;;;5009479;28;20217;-67
2024/03/08 08:57:19;;;;;;;31.30;18.77;;;8.30;99.90;;;;;;5007902;28;20222;-66
2024/03/08 08:59:48;;;;;;;35.67;19.60;;;8.10;99.90;;;;;;5009657;28;20237;-67
2024/03/08 09:02:20;;;;;;;35.80;19.60;;;8.20;99.90;;;;;;5007910;28;20210;-66
2024/03/08 09:04:50;;;;;;;30.00;18.13;;;8.50;35.90;;;;;;5004169;28;20225;-66
2024/03/08 09:07:19;;;;;;;33.53;19.50;;;8.40;10.80;;;;;;5010649;28;20218;-67
2024/03/08 09:09:47;;;;;;;31.27;19.10;;;8.60;91.90;;;;;;5002278;28;20236;-67
2024/03/08 09:12:16;;;;;;;35.37;18.97;;;8.60;1.00;;;;;;5009669;28;20237;-67
2024/03/08 09:14:45;;;;;;;32.17;18.37;;;8.60;29.60;;;;;;5011318;28;20261;-66
2024/03/08 09:17:17;;;;;;;32.43;18.00;;;8.80;1.00;;;;;;5008558;28;20201;-67
2024/03/08 09:19:45;;;;;;;33.17;18.30;;;8.90;1.00;;;;;;5003580;28;20237;-66
2024/03/08 09:22:14;;;;;;;33.93;18.23;;;9.00;1.00;;;;;;5009060;28;20222;-67
2024/03/08 09:24:43;;;;;;;32.47;18.73;;;9.20;1.00;;;;;;5004301;28;20300;-65
2024/03/08 09:27:11;;;;;;;32.17;18.17;;;9.40;1.00;;;;;;5024331;28;20218;-65
2024/03/08 09:29:39;;;;;;;27.90;17.77;;;9.40;99.90;;;;;;5009453;28;20194;-65
2024/03/08 09:32:11;;;;;;;31.53;18.33;;;9.80;1.00;;;;;;5006880;28;20198;-65
2024/03/08 09:34:40;;;;;;;26.90;17.23;;;10.10;1.00;;;;;;5009033;28;20228;-65
2024/03/08 09:37:08;;;;;;;27.40;17.23;;;10.10;99.90;;;;;;5010382;28;20218;-65
2024/03/08 09:39:37;;;;;;;27.90;16.67;;;10.30;1.00;;;;;;5006546;28;20245;-65
2024/03/08 09:42:06;;;;;;;30.40;17.43;;;10.20;75.10;;;;;;5009741;28;20221;-65
2024/03/08 09:44:36;;;;;;;28.20;16.97;;;10.30;1.00;;;;;;5011563;28;20478;-65
2024/03/08 09:47:06;;;;;;;32.10;17.13;;;10.50;1.00;;;;;;5009216;28;20202;-65
2024/03/08 09:49:36;;;;;;;26.47;17.00;;;10.50;1.00;;;;;;5008833;28;20220;-65
2024/03/08 09:52:07;;;;;;;27.03;17.17;;;10.70;99.90;;;;;;5010545;28;20225;-64
2024/03/08 09:54:36;;;;;;;29.37;17.27;;;10.60;1.00;;;;;;5008659;28;20226;-65
2024/03/08 09:57:08;;;;;;;25.93;16.40;;;10.80;1.00;;;;;;5007598;28;20222;-65
2024/03/08 09:59:47;;;;;;;27.60;17.00;;;10.80;99.90;;;;;;5020954;28;20211;-65
2024/03/08 10:02:16;;;;;;;25.77;16.90;;;10.80;99.90;;;;;;5009993;28;20209;-65
2024/03/08 10:04:50;;;;;;;30.40;16.83;;;11.00;1.00;;;;;;5003807;28;20222;-65
2024/03/08 10:07:18;;;;;;;26.73;15.03;;;11.30;1.00;;;;;;5007816;28;20221;-65
2024/03/08 10:09:50;;;;;;;28.00;16.73;;;11.70;99.90;;;;;;5009450;28;20226;-65
2024/03/08 10:12:19;;;;;;;23.03;15.57;;;11.80;1.00;;;;;;5008295;28;20253;-65
2024/03/08 10:14:49;;;;;;;27.10;16.23;;;12.10;1.00;;;;;;5008386;28;20691;-65
2024/03/08 10:17:20;;;;;;;26.17;16.40;;;12.10;99.90;;;;;;5010031;28;20201;-65
2024/03/08 10:19:55;;;;;;;30.23;15.63;;;12.10;1.00;;;;;;5009085;28;20214;-65
2024/03/08 10:22:24;;;;;;;29.43;16.20;;;12.40;1.00;;;;;;5009665;28;20294;-65
2024/03/08 10:24:52;;;;;;;24.43;15.60;;;12.60;1.00;;;;;;5009655;28;20249;-64
2024/03/08 10:27:21;;;;;;;22.40;14.83;;;12.40;99.90;;;;;;5004772;28;20358;-65
2024/03/08 10:29:51;;;;;;;21.30;15.03;;;12.20;99.90;;;;;;5006044;28;20313;-65
2024/03/08 10:32:20;;;;;;;26.93;15.33;;;12.50;1.00;;;;;;4988046;28;20206;-65
2024/03/08 10:34:50;;;;;;;23.10;15.40;;;12.40;1.00;;;;;;5009475;28;20958;-65
2024/03/08 10:37:24;;;;;;;23.00;14.80;;;12.60;1.00;;;;;;5010205;28;20971;-65
2024/03/08 10:40:10;;;;;;;25.33;15.43;;;12.60;1.00;;;;;;5010186;28;20627;-65
2024/03/08 10:42:47;;;;;;;23.63;15.47;;;12.80;99.90;;;;;;5011434;28;20276;-65
2024/03/08 10:45:22;;;;;;;23.13;15.43;;;12.90;1.00;;;;;;5010896;28;20727;-65
2024/03/08 10:47:58;;;;;;;23.63;15.47;;;13.00;99.90;;;;;;5010171;28;20222;-66
2024/03/08 10:50:27;;;;;;;22.73;14.77;;;13.30;1.00;;;;;;5002318;28;20190;-65
2024/03/08 10:53:01;;;;;;;21.97;14.73;;;13.20;1.00;;;;;;4985626;28;20188;-65
2024/03/08 10:55:32;;;;;;;24.30;14.40;;;13.00;1.00;;;;;;5004287;28;20218;-65
2024/03/08 10:58:01;;;;;;;22.13;15.07;;;13.10;1.00;;;;;;5009753;28;20214;-65
2024/03/08 11:00:31;;;;;;;23.23;14.60;;;13.20;1.00;;;;;;5007626;28;20300;-66
2024/03/08 11:03:00;;;;;;;24.07;14.70;;;13.60;1.00;;;;;;5007890;28;20222;-65
2024/03/08 11:05:39;;;;;;;22.27;15.33;;;13.90;1.00;;;;;;5006008;28;20210;-66
2024/03/08 11:08:20;;;;;;;23.30;14.57;;;13.70;99.90;;;;;;5001241;28;20285;-65
2024/03/08 11:10:51;;;;;;;23.50;14.83;;;13.70;99.90;;;;;;5005184;28;20227;-65
2024/03/08 11:13:38;;;;;;;24.00;15.37;;;13.60;99.90;;;;;;5003344;28;20394;-65
2024/03/08 11:16:09;;;;;;;21.47;14.50;;;13.30;99.90;;;;;;5020248;28;20615;-65
2024/03/08 11:18:38;;;;;;;20.63;14.27;;;13.50;1.00;;;;;;5020195;28;20266;-66
2024/03/08 11:21:12;;;;;;;21.87;13.77;;;14.00;99.40;;;;;;5010472;28;20230;-66
2024/03/08 11:23:43;;;;;;;25.80;15.43;;;14.30;25.50;;;;;;5002290;28;20674;-66
2024/03/08 11:26:19;;;;;;;24.80;14.90;;;14.50;1.00;;;;;;5009650;28;20284;-66
2024/03/08 11:28:48;;;;;;;21.77;15.20;;;14.30;1.00;;;;;;5007836;28;20219;-66
2024/03/08 11:31:28;;;;;;;22.93;14.93;;;14.20;1.00;;;;;;5009957;28;20212;-65
2024/03/08 11:33:57;;;;;;;24.70;14.93;;;14.30;1.00;;;;;;5007640;28;20571;-65
2024/03/08 11:36:26;;;;;;;23.40;14.83;;;14.20;1.00;;;;;;5006932;28;20310;-66
2024/03/08 11:38:59;;;;;;;21.23;14.67;;;14.30;1.00;;;;;;5002934;28;20281;-65
2024/03/08 11:41:27;;;;;;;19.57;13.80;;;14.20;1.00;;;;;;5007576;28;20541;-65
2024/03/08 11:44:07;;;;;;;21.73;14.47;;;14.30;1.00;;;;;;5016998;28;20201;-65
2024/03/08 11:46:35;;;;;;;22.20;14.43;;;14.30;1.00;;;;;;5004892;28;20219;-65
2024/03/08 11:49:05;;;;;;;19.80;13.97;;;14.20;1.00;;;;;;5017232;28;20313;-65
2024/03/08 11:51:34;;;;;;;23.23;14.23;;;14.40;1.00;;;;;;5006291;28;20219;-65
2024/03/08 11:54:06;;;;;;;19.43;13.77;;;14.80;1.00;;;;;;5009458;28;20326;-65
2024/03/08 11:56:34;;;;;;;20.47;13.73;;;15.10;1.00;;;;;;5004050;28;20240;-65
2024/03/08 11:59:02;;;;;;;18.27;13.33;;;15.40;99.90;;;;;;5007913;28;21995;-65
2024/03/08 12:01:31;;;;;;;22.27;14.30;;;15.50;99.90;;;;;;5006045;28;20248;-65
2024/03/08 12:04:01;;;;;;;24.40;14.40;;;15.30;99.90;;;;;;5008137;28;20230;-65
2024/03/08 12:06:40;;;;;;;18.10;13.83;;;15.30;99.90;;;;;;5006005;28;20706;-65
2024/03/08 12:09:11;;;;;;;21.07;14.00;;;15.00;99.90;;;;;;5001844;28;20227;-65
2024/03/08 12:11:45;;;;;;;19.90;12.83;;;15.20;1.00;;;;;;5007112;28;20647;-65
2024/03/08 12:14:15;;;;;;;23.50;14.70;;;15.30;99.90;;;;;;5005804;28;20199;-65
2024/03/08 12:16:43;;;;;;;22.23;13.47;;;16.00;99.90;;;;;;5003982;28;20214;-65
2024/03/08 12:19:12;;;;;;;20.93;14.37;;;15.60;3.60;;;;;;5004437;28;20216;-65
2024/03/08 12:21:48;;;;;;;23.80;14.47;;;15.40;13.00;;;;;;5008799;28;20642;-64
2024/03/08 12:24:19;;;;;;;20.50;14.10;;;15.00;93.80;;;;;;5008944;28;20227;-65
2024/03/08 12:26:48;;;;;;;19.60;13.57;;;15.30;64.00;;;;;;5009548;28;20218;-65
2024/03/08 12:29:23;;;;;;;20.87;13.20;;;15.50;1.00;;;;;;5013633;28;20201;-65
2024/03/08 12:31:53;;;;;;;19.97;14.13;;;15.60;1.00;;;;;;4993142;28;20222;-65
2024/03/08 12:34:22;;;;;;;22.17;13.83;;;15.70;1.00;;;;;;4999469;28;20789;-65
2024/03/08 12:36:54;;;;;;;19.67;13.13;;;16.20;1.00;;;;;;5001946;28;20270;-65
2024/03/08 12:39:26;;;;;;;21.63;14.43;;;16.30;1.00;;;;;;5008720;28;20708;-65
2024/03/08 12:41:56;;;;;;;24.07;13.90;;;16.00;1.00;;;;;;5007962;28;20230;-65
2024/03/08 12:44:26;;;;;;;23.43;13.83;;;15.60;1.00;;;;;;5010551;28;20199;-64
2024/03/08 12:46:54;;;;;;;22.83;14.00;;;15.20;1.00;;;;;;5011430;28;20203;-65
2024/03/08 12:49:23;;;;;;;21.33;14.37;;;15.50;1.00;;;;;;5009311;28;20340;-64